sensor_id;sensor_type;location;lat;lon;timestamp;P1;durP1;ratioP1;P2;durP2;ratioP2
23304;SDS011;11821;51.456;8.844;2023-10-13T00:01:57;4.47;;;3.78;;
23304;SDS011;11821;51.456;8.844;2023-10-13T00:04:28;6.28;;;4.25;;
23304;SDS011;11821;51.456;8.844;2023-10-13T00:06:58;6.97;;;4.10;;
23304;SDS011;11821;51.456;8.844;2023-10-13T00:09:28;6.28;;;4.82;;
23304;SDS011;11821;51.456;8.844;2023-10-13T00:11:58;6.35;;;4.50;;
23304;SDS011;11821;51.456;8.844;2023-10-13T00:14:25;6.47;;;4.20;;
23304;SDS011;11821;51.456;8.844;2023-10-13T00:17:08;5.03;;;3.97;;
23304;SDS011;11821;51.456;8.844;2023-10-13T00:19:41;6.75;;;4.70;;
23304;SDS011;11821;51.456;8.844;2023-10-13T00:22:11;7.03;;;5.07;;
23304;SDS011;11821;51.456;8.844;2023-10-13T00:24:39;10.18;;;4.10;;
23304;SDS011;11821;51.456;8.844;2023-10-13T00:27:13;6.93;;;4.65;;
23304;SDS011;11821;51.456;8.844;2023-10-13T00:32:41;8.07;;;5.22;;
23304;SDS011;11821;51.456;8.844;2023-10-13T00:35:11;5.30;;;4.78;;
23304;SDS011;11821;51.456;8.844;2023-10-13T00:37:40;5.82;;;5.20;;
23304;SDS011;11821;51.456;8.844;2023-10-13T00:40:09;7.70;;;5.95;;
23304;SDS011;11821;51.456;8.844;2023-10-13T00:42:56;7.05;;;5.45;;
23304;SDS011;11821;51.456;8.844;2023-10-13T00:45:42;9.30;;;5.95;;
23304;SDS011;11821;51.456;8.844;2023-10-13T00:48:10;9.10;;;6.70;;
23304;SDS011;11821;51.456;8.844;2023-10-13T00:50:40;11.80;;;7.75;;
23304;SDS011;11821;51.456;8.844;2023-10-13T00:53:08;8.60;;;6.72;;
23304;SDS011;11821;51.456;8.844;2023-10-13T00:55:35;11.98;;;6.10;;
23304;SDS011;11821;51.456;8.844;2023-10-13T00:58:07;8.57;;;6.05;;
23304;SDS011;11821;51.456;8.844;2023-10-13T01:00:38;3.25;;;2.95;;
23304;SDS011;11821;51.456;8.844;2023-10-13T01:03:13;6.78;;;6.10;;
23304;SDS011;11821;51.456;8.844;2023-10-13T01:05:41;8.57;;;6.18;;
23304;SDS011;11821;51.456;8.844;2023-10-13T01:08:08;12.00;;;7.38;;
23304;SDS011;11821;51.456;8.844;2023-10-13T01:10:37;7.88;;;7.07;;
23304;SDS011;11821;51.456;8.844;2023-10-13T01:13:04;6.65;;;5.63;;
23304;SDS011;11821;51.456;8.844;2023-10-13T01:15:31;7.50;;;6.68;;
23304;SDS011;11821;51.456;8.844;2023-10-13T01:18:05;9.65;;;5.35;;
23304;SDS011;11821;51.456;8.844;2023-10-13T01:20:42;8.73;;;5.65;;
23304;SDS011;11821;51.456;8.844;2023-10-13T01:23:11;6.97;;;4.75;;
23304;SDS011;11821;51.456;8.844;2023-10-13T01:25:44;7.22;;;5.10;;
23304;SDS011;11821;51.456;8.844;2023-10-13T01:28:12;9.48;;;5.32;;
23304;SDS011;11821;51.456;8.844;2023-10-13T01:30:44;12.20;;;5.30;;
23304;SDS011;11821;51.456;8.844;2023-10-13T01:33:18;20.33;;;6.32;;
23304;SDS011;11821;51.456;8.844;2023-10-13T01:35:55;7.65;;;5.50;;
23304;SDS011;11821;51.456;8.844;2023-10-13T01:38:24;8.25;;;6.15;;
23304;SDS011;11821;51.456;8.844;2023-10-13T01:40:53;10.35;;;6.13;;
23304;SDS011;11821;51.456;8.844;2023-10-13T01:43:22;11.07;;;5.43;;
23304;SDS011;11821;51.456;8.844;2023-10-13T01:45:49;17.63;;;6.50;;
23304;SDS011;11821;51.456;8.844;2023-10-13T01:48:16;7.13;;;6.40;;
23304;SDS011;11821;51.456;8.844;2023-10-13T01:50:46;17.40;;;6.28;;
23304;SDS011;11821;51.456;8.844;2023-10-13T01:53:17;9.32;;;5.88;;
23304;SDS011;11821;51.456;8.844;2023-10-13T01:55:45;8.77;;;6.82;;
23304;SDS011;11821;51.456;8.844;2023-10-13T01:58:14;8.15;;;6.70;;
23304;SDS011;11821;51.456;8.844;2023-10-13T02:00:42;13.70;;;6.85;;
23304;SDS011;11821;51.456;8.844;2023-10-13T02:03:09;9.50;;;6.78;;
23304;SDS011;11821;51.456;8.844;2023-10-13T02:05:46;9.90;;;6.97;;
23304;SDS011;11821;51.456;8.844;2023-10-13T02:08:14;12.70;;;7.35;;
23304;SDS011;11821;51.456;8.844;2023-10-13T02:10:51;8.85;;;7.60;;
23304;SDS011;11821;51.456;8.844;2023-10-13T02:13:18;8.65;;;7.35;;
23304;SDS011;11821;51.456;8.844;2023-10-13T02:15:45;9.20;;;6.80;;
23304;SDS011;11821;51.456;8.844;2023-10-13T02:18:15;9.85;;;7.68;;
23304;SDS011;11821;51.456;8.844;2023-10-13T02:21:02;15.35;;;7.70;;
23304;SDS011;11821;51.456;8.844;2023-10-13T02:23:41;13.57;;;7.97;;
23304;SDS011;11821;51.456;8.844;2023-10-13T02:26:13;9.68;;;7.55;;
23304;SDS011;11821;51.456;8.844;2023-10-13T02:28:41;17.85;;;8.25;;
23304;SDS011;11821;51.456;8.844;2023-10-13T02:31:09;12.13;;;7.60;;
23304;SDS011;11821;51.456;8.844;2023-10-13T02:33:37;11.60;;;8.25;;
23304;SDS011;11821;51.456;8.844;2023-10-13T02:36:10;13.95;;;7.78;;
23304;SDS011;11821;51.456;8.844;2023-10-13T02:38:38;13.88;;;7.60;;
23304;SDS011;11821;51.456;8.844;2023-10-13T02:41:14;10.82;;;8.20;;
23304;SDS011;11821;51.456;8.844;2023-10-13T02:43:55;11.93;;;7.88;;
23304;SDS011;11821;51.456;8.844;2023-10-13T02:46:22;12.50;;;9.57;;
23304;SDS011;11821;51.456;8.844;2023-10-13T02:48:50;13.65;;;9.00;;
23304;SDS011;11821;51.456;8.844;2023-10-13T02:51:21;12.40;;;9.27;;
23304;SDS011;11821;51.456;8.844;2023-10-13T02:53:56;15.40;;;9.95;;
23304;SDS011;11821;51.456;8.844;2023-10-13T02:58:54;10.65;;;8.20;;
23304;SDS011;11821;51.456;8.844;2023-10-13T03:01:32;9.15;;;8.15;;
23304;SDS011;11821;51.456;8.844;2023-10-13T03:04:00;9.32;;;8.15;;
23304;SDS011;11821;51.456;8.844;2023-10-13T03:06:27;11.07;;;8.15;;
23304;SDS011;11821;51.456;8.844;2023-10-13T03:09:03;10.25;;;8.38;;
23304;SDS011;11821;51.456;8.844;2023-10-13T03:11:41;12.75;;;7.93;;
23304;SDS011;11821;51.456;8.844;2023-10-13T03:14:17;14.40;;;8.25;;
23304;SDS011;11821;51.456;8.844;2023-10-13T03:16:55;11.85;;;8.23;;
23304;SDS011;11821;51.456;8.844;2023-10-13T03:19:28;15.00;;;9.07;;
23304;SDS011;11821;51.456;8.844;2023-10-13T03:21:59;12.13;;;8.70;;
23304;SDS011;11821;51.456;8.844;2023-10-13T03:24:35;15.70;;;8.52;;
23304;SDS011;11821;51.456;8.844;2023-10-13T03:27:02;15.63;;;9.55;;
23304;SDS011;11821;51.456;8.844;2023-10-13T03:29:38;14.50;;;9.70;;
23304;SDS011;11821;51.456;8.844;2023-10-13T03:32:13;11.55;;;9.25;;
23304;SDS011;11821;51.456;8.844;2023-10-13T03:34:44;14.38;;;9.75;;
23304;SDS011;11821;51.456;8.844;2023-10-13T03:37:26;16.33;;;10.27;;
23304;SDS011;11821;51.456;8.844;2023-10-13T03:40:05;13.18;;;9.32;;
23304;SDS011;11821;51.456;8.844;2023-10-13T03:42:58;14.65;;;9.63;;
23304;SDS011;11821;51.456;8.844;2023-10-13T03:48:14;12.45;;;9.18;;
23304;SDS011;11821;51.456;8.844;2023-10-13T03:50:50;17.55;;;10.60;;
23304;SDS011;11821;51.456;8.844;2023-10-13T03:53:32;15.82;;;10.35;;
23304;SDS011;11821;51.456;8.844;2023-10-13T03:56:02;17.90;;;9.70;;
23304;SDS011;11821;51.456;8.844;2023-10-13T03:58:38;18.77;;;9.27;;
23304;SDS011;11821;51.456;8.844;2023-10-13T04:01:08;20.08;;;10.07;;
23304;SDS011;11821;51.456;8.844;2023-10-13T04:03:41;16.95;;;9.68;;
23304;SDS011;11821;51.456;8.844;2023-10-13T04:06:23;14.38;;;9.80;;
23304;SDS011;11821;51.456;8.844;2023-10-13T04:09:13;13.68;;;9.75;;
23304;SDS011;11821;51.456;8.844;2023-10-13T04:11:55;17.50;;;10.55;;
23304;SDS011;11821;51.456;8.844;2023-10-13T04:14:45;8.18;;;6.95;;
23304;SDS011;11821;51.456;8.844;2023-10-13T04:17:24;10.95;;;8.65;;
23304;SDS011;11821;51.456;8.844;2023-10-13T04:19:56;12.18;;;10.02;;
23304;SDS011;11821;51.456;8.844;2023-10-13T04:22:32;15.20;;;9.38;;
23304;SDS011;11821;51.456;8.844;2023-10-13T04:27:59;13.25;;;9.38;;
23304;SDS011;11821;51.456;8.844;2023-10-13T04:30:53;13.88;;;9.60;;
23304;SDS011;11821;51.456;8.844;2023-10-13T04:33:26;15.82;;;9.80;;
23304;SDS011;11821;51.456;8.844;2023-10-13T04:36:12;11.85;;;8.68;;
23304;SDS011;11821;51.456;8.844;2023-10-13T04:38:40;14.75;;;9.25;;
23304;SDS011;11821;51.456;8.844;2023-10-13T04:41:29;13.02;;;8.52;;
23304;SDS011;11821;51.456;8.844;2023-10-13T04:44:05;12.93;;;8.07;;
23304;SDS011;11821;51.456;8.844;2023-10-13T04:46:51;13.65;;;8.10;;
23304;SDS011;11821;51.456;8.844;2023-10-13T04:49:21;10.48;;;7.82;;
23304;SDS011;11821;51.456;8.844;2023-10-13T04:51:57;10.35;;;7.72;;
23304;SDS011;11821;51.456;8.844;2023-10-13T04:54:36;10.57;;;7.07;;
23304;SDS011;11821;51.456;8.844;2023-10-13T04:57:22;11.65;;;7.07;;
23304;SDS011;11821;51.456;8.844;2023-10-13T04:59:49;12.48;;;8.43;;
23304;SDS011;11821;51.456;8.844;2023-10-13T05:02:35;13.10;;;7.20;;
23304;SDS011;11821;51.456;8.844;2023-10-13T05:05:10;15.30;;;7.43;;
23304;SDS011;11821;51.456;8.844;2023-10-13T05:07:36;9.35;;;7.97;;
23304;SDS011;11821;51.456;8.844;2023-10-13T05:10:22;10.13;;;7.80;;
23304;SDS011;11821;51.456;8.844;2023-10-13T05:13:07;13.63;;;7.82;;
23304;SDS011;11821;51.456;8.844;2023-10-13T05:15:53;10.00;;;7.72;;
23304;SDS011;11821;51.456;8.844;2023-10-13T05:18:38;10.65;;;7.80;;
23304;SDS011;11821;51.456;8.844;2023-10-13T05:21:23;11.07;;;8.15;;
23304;SDS011;11821;51.456;8.844;2023-10-13T05:24:08;8.75;;;7.60;;
23304;SDS011;11821;51.456;8.844;2023-10-13T05:26:53;12.50;;;8.07;;
23304;SDS011;11821;51.456;8.844;2023-10-13T05:29:43;13.25;;;8.30;;
23304;SDS011;11821;51.456;8.844;2023-10-13T05:32:30;7.60;;;6.45;;
23304;SDS011;11821;51.456;8.844;2023-10-13T05:35:19;10.93;;;8.63;;
23304;SDS011;11821;51.456;8.844;2023-10-13T05:38:05;10.18;;;8.93;;
23304;SDS011;11821;51.456;8.844;2023-10-13T05:40:53;11.75;;;8.45;;
23304;SDS011;11821;51.456;8.844;2023-10-13T05:43:38;9.95;;;7.65;;
23304;SDS011;11821;51.456;8.844;2023-10-13T05:46:23;10.20;;;7.38;;
23304;SDS011;11821;51.456;8.844;2023-10-13T05:48:53;9.35;;;7.00;;
23304;SDS011;11821;51.456;8.844;2023-10-13T05:51:20;13.13;;;7.45;;
23304;SDS011;11821;51.456;8.844;2023-10-13T05:54:02;10.32;;;7.70;;
23304;SDS011;11821;51.456;8.844;2023-10-13T05:56:41;9.32;;;7.68;;
23304;SDS011;11821;51.456;8.844;2023-10-13T05:59:27;11.00;;;7.80;;
23304;SDS011;11821;51.456;8.844;2023-10-13T06:02:14;8.88;;;7.45;;
23304;SDS011;11821;51.456;8.844;2023-10-13T06:05:02;12.52;;;7.65;;
23304;SDS011;11821;51.456;8.844;2023-10-13T06:07:48;8.68;;;6.07;;
23304;SDS011;11821;51.456;8.844;2023-10-13T06:10:33;10.50;;;7.70;;
23304;SDS011;11821;51.456;8.844;2023-10-13T06:13:18;15.63;;;8.27;;
23304;SDS011;11821;51.456;8.844;2023-10-13T06:16:10;12.23;;;8.40;;
23304;SDS011;11821;51.456;8.844;2023-10-13T06:18:55;12.38;;;7.82;;
23304;SDS011;11821;51.456;8.844;2023-10-13T06:21:40;10.02;;;7.22;;
23304;SDS011;11821;51.456;8.844;2023-10-13T06:24:26;13.23;;;7.80;;
23304;SDS011;11821;51.456;8.844;2023-10-13T06:27:11;8.15;;;7.28;;
23304;SDS011;11821;51.456;8.844;2023-10-13T06:29:56;10.82;;;7.38;;
23304;SDS011;11821;51.456;8.844;2023-10-13T06:32:23;14.63;;;7.38;;
23304;SDS011;11821;51.456;8.844;2023-10-13T06:34:53;8.90;;;7.53;;
23304;SDS011;11821;51.456;8.844;2023-10-13T06:37:26;9.52;;;7.55;;
23304;SDS011;11821;51.456;8.844;2023-10-13T06:39:57;10.82;;;6.65;;
23304;SDS011;11821;51.456;8.844;2023-10-13T06:42:35;10.57;;;7.63;;
23304;SDS011;11821;51.456;8.844;2023-10-13T06:45:08;12.30;;;7.72;;
23304;SDS011;11821;51.456;8.844;2023-10-13T06:47:35;14.00;;;7.60;;
23304;SDS011;11821;51.456;8.844;2023-10-13T06:50:08;12.65;;;7.70;;
23304;SDS011;11821;51.456;8.844;2023-10-13T06:52:44;12.13;;;7.15;;
23304;SDS011;11821;51.456;8.844;2023-10-13T06:55:15;8.57;;;7.03;;
23304;SDS011;11821;51.456;8.844;2023-10-13T06:57:49;8.98;;;5.53;;
23304;SDS011;11821;51.456;8.844;2023-10-13T07:00:17;11.38;;;7.53;;
23304;SDS011;11821;51.456;8.844;2023-10-13T07:03:00;9.15;;;7.60;;
23304;SDS011;11821;51.456;8.844;2023-10-13T07:05:43;13.15;;;6.70;;
23304;SDS011;11821;51.456;8.844;2023-10-13T07:08:13;7.13;;;6.35;;
23304;SDS011;11821;51.456;8.844;2023-10-13T07:10:49;9.45;;;6.78;;
23304;SDS011;11821;51.456;8.844;2023-10-13T07:13:34;11.20;;;6.45;;
23304;SDS011;11821;51.456;8.844;2023-10-13T07:16:05;10.00;;;6.43;;
23304;SDS011;11821;51.456;8.844;2023-10-13T07:18:38;10.45;;;6.13;;
23304;SDS011;11821;51.456;8.844;2023-10-13T07:21:15;7.32;;;5.65;;
23304;SDS011;11821;51.456;8.844;2023-10-13T07:23:42;6.88;;;5.32;;
23304;SDS011;11821;51.456;8.844;2023-10-13T07:26:26;8.82;;;7.13;;
23304;SDS011;11821;51.456;8.844;2023-10-13T07:28:53;7.50;;;6.65;;
23304;SDS011;11821;51.456;8.844;2023-10-13T07:31:20;9.43;;;6.03;;
23304;SDS011;11821;51.456;8.844;2023-10-13T07:33:47;7.13;;;5.75;;
23304;SDS011;11821;51.456;8.844;2023-10-13T07:36:13;9.32;;;6.47;;
23304;SDS011;11821;51.456;8.844;2023-10-13T07:38:49;10.57;;;6.97;;
23304;SDS011;11821;51.456;8.844;2023-10-13T07:41:25;9.98;;;6.35;;
23304;SDS011;11821;51.456;8.844;2023-10-13T07:43:56;7.45;;;6.47;;
23304;SDS011;11821;51.456;8.844;2023-10-13T07:46:26;8.38;;;7.07;;
23304;SDS011;11821;51.456;8.844;2023-10-13T07:48:57;13.32;;;6.65;;
23304;SDS011;11821;51.456;8.844;2023-10-13T07:51:40;6.50;;;5.80;;
23304;SDS011;11821;51.456;8.844;2023-10-13T07:57:40;7.65;;;5.50;;
23304;SDS011;11821;51.456;8.844;2023-10-13T08:00:25;7.40;;;6.00;;
23304;SDS011;11821;51.456;8.844;2023-10-13T08:03:12;11.25;;;5.45;;
23304;SDS011;11821;51.456;8.844;2023-10-13T08:05:42;7.70;;;4.80;;
23304;SDS011;11821;51.456;8.844;2023-10-13T08:08:33;6.72;;;4.68;;
23304;SDS011;11821;51.456;8.844;2023-10-13T08:13:57;5.40;;;4.82;;
23304;SDS011;11821;51.456;8.844;2023-10-13T08:16:42;4.40;;;4.00;;
23304;SDS011;11821;51.456;8.844;2023-10-13T08:19:15;7.10;;;5.00;;
23304;SDS011;11821;51.456;8.844;2023-10-13T08:21:43;7.05;;;5.22;;
23304;SDS011;11821;51.456;8.844;2023-10-13T08:24:27;5.53;;;4.90;;
23304;SDS011;11821;51.456;8.844;2023-10-13T08:27:03;6.68;;;4.95;;
23304;SDS011;11821;51.456;8.844;2023-10-13T08:29:48;6.43;;;5.35;;
23304;SDS011;11821;51.456;8.844;2023-10-13T08:32:21;9.82;;;5.22;;
23304;SDS011;11821;51.456;8.844;2023-10-13T08:37:20;13.10;;;5.53;;
23304;SDS011;11821;51.456;8.844;2023-10-13T08:39:51;7.10;;;5.28;;
23304;SDS011;11821;51.456;8.844;2023-10-13T08:45:19;12.52;;;5.97;;
23304;SDS011;11821;51.456;8.844;2023-10-13T08:47:58;12.00;;;5.88;;
23304;SDS011;11821;51.456;8.844;2023-10-13T08:58:39;12.23;;;5.30;;
23304;SDS011;11821;51.456;8.844;2023-10-13T09:01:28;11.48;;;4.75;;
23304;SDS011;11821;51.456;8.844;2023-10-13T09:04:14;10.38;;;5.13;;
23304;SDS011;11821;51.456;8.844;2023-10-13T09:06:48;7.60;;;3.60;;
23304;SDS011;11821;51.456;8.844;2023-10-13T09:12:12;10.18;;;4.70;;
23304;SDS011;11821;51.456;8.844;2023-10-13T09:14:39;15.07;;;5.53;;
23304;SDS011;11821;51.456;8.844;2023-10-13T09:17:10;13.43;;;5.00;;
23304;SDS011;11821;51.456;8.844;2023-10-13T09:20:10;10.05;;;5.47;;
23304;SDS011;11821;51.456;8.844;2023-10-13T09:22:53;14.88;;;4.43;;
23304;SDS011;11821;51.456;8.844;2023-10-13T09:25:29;9.73;;;4.63;;
23304;SDS011;11821;51.456;8.844;2023-10-13T09:28:01;12.38;;;4.60;;
23304;SDS011;11821;51.456;8.844;2023-10-13T09:30:28;9.68;;;4.18;;
23304;SDS011;11821;51.456;8.844;2023-10-13T09:35:34;13.32;;;5.53;;
23304;SDS011;11821;51.456;8.844;2023-10-13T09:38:03;17.30;;;4.82;;
23304;SDS011;11821;51.456;8.844;2023-10-13T09:40:30;5.88;;;3.88;;
23304;SDS011;11821;51.456;8.844;2023-10-13T09:43:03;14.23;;;4.80;;
23304;SDS011;11821;51.456;8.844;2023-10-13T09:45:34;9.32;;;4.95;;
23304;SDS011;11821;51.456;8.844;2023-10-13T09:48:28;16.57;;;6.03;;
23304;SDS011;11821;51.456;8.844;2023-10-13T09:51:02;17.90;;;4.43;;
23304;SDS011;11821;51.456;8.844;2023-10-13T09:53:32;8.48;;;4.57;;
23304;SDS011;11821;51.456;8.844;2023-10-13T09:56:07;9.13;;;4.85;;
23304;SDS011;11821;51.456;8.844;2023-10-13T09:59:06;13.48;;;4.30;;
23304;SDS011;11821;51.456;8.844;2023-10-13T10:01:36;12.77;;;4.90;;
23304;SDS011;11821;51.456;8.844;2023-10-13T10:04:09;9.37;;;4.33;;
23304;SDS011;11821;51.456;8.844;2023-10-13T10:06:39;16.23;;;4.85;;
23304;SDS011;11821;51.456;8.844;2023-10-13T10:09:11;18.30;;;4.65;;
23304;SDS011;11821;51.456;8.844;2023-10-13T10:11:48;9.52;;;4.15;;
23304;SDS011;11821;51.456;8.844;2023-10-13T10:16:54;6.65;;;3.85;;
23304;SDS011;11821;51.456;8.844;2023-10-13T10:19:26;12.90;;;4.78;;
23304;SDS011;11821;51.456;8.844;2023-10-13T10:22:05;11.30;;;4.40;;
23304;SDS011;11821;51.456;8.844;2023-10-13T10:27:55;7.28;;;4.05;;
23304;SDS011;11821;51.456;8.844;2023-10-13T10:30:29;8.15;;;4.78;;
23304;SDS011;11821;51.456;8.844;2023-10-13T10:32:59;15.13;;;4.00;;
23304;SDS011;11821;51.456;8.844;2023-10-13T10:35:27;14.20;;;4.40;;
23304;SDS011;11821;51.456;8.844;2023-10-13T10:38:07;8.68;;;4.03;;
23304;SDS011;11821;51.456;8.844;2023-10-13T10:40:52;7.17;;;3.60;;
23304;SDS011;11821;51.456;8.844;2023-10-13T10:46:14;9.88;;;4.13;;
23304;SDS011;11821;51.456;8.844;2023-10-13T10:48:44;10.10;;;4.35;;
23304;SDS011;11821;51.456;8.844;2023-10-13T10:51:14;8.55;;;4.38;;
23304;SDS011;11821;51.456;8.844;2023-10-13T10:53:47;11.68;;;3.92;;
23304;SDS011;11821;51.456;8.844;2023-10-13T10:56:17;8.20;;;4.03;;
23304;SDS011;11821;51.456;8.844;2023-10-13T10:58:52;11.18;;;4.78;;
23304;SDS011;11821;51.456;8.844;2023-10-13T11:01:25;9.27;;;4.03;;
23304;SDS011;11821;51.456;8.844;2023-10-13T11:04:00;10.80;;;5.00;;
23304;SDS011;11821;51.456;8.844;2023-10-13T11:09:30;7.63;;;4.75;;
23304;SDS011;11821;51.456;8.844;2023-10-13T11:14:30;9.38;;;4.28;;
23304;SDS011;11821;51.456;8.844;2023-10-13T11:16:57;11.02;;;4.28;;
23304;SDS011;11821;51.456;8.844;2023-10-13T11:19:34;13.40;;;4.28;;
23304;SDS011;11821;51.456;8.844;2023-10-13T11:24:40;8.20;;;4.50;;
23304;SDS011;11821;51.456;8.844;2023-10-13T11:27:16;10.70;;;5.05;;
23304;SDS011;11821;51.456;8.844;2023-10-13T11:29:46;11.50;;;4.60;;
23304;SDS011;11821;51.456;8.844;2023-10-13T11:32:18;11.27;;;4.40;;
23304;SDS011;11821;51.456;8.844;2023-10-13T11:34:48;12.30;;;4.32;;
23304;SDS011;11821;51.456;8.844;2023-10-13T11:40:04;8.98;;;4.30;;
23304;SDS011;11821;51.456;8.844;2023-10-13T11:42:38;11.45;;;4.22;;
23304;SDS011;11821;51.456;8.844;2023-10-13T11:45:09;21.17;;;4.72;;
23304;SDS011;11821;51.456;8.844;2023-10-13T11:47:54;11.38;;;3.83;;
23304;SDS011;11821;51.456;8.844;2023-10-13T11:50:27;10.00;;;4.20;;
23304;SDS011;11821;51.456;8.844;2023-10-13T11:53:03;7.90;;;4.47;;
23304;SDS011;11821;51.456;8.844;2023-10-13T11:55:33;13.25;;;4.28;;
23304;SDS011;11821;51.456;8.844;2023-10-13T11:58:00;9.57;;;4.07;;
23304;SDS011;11821;51.456;8.844;2023-10-13T12:00:26;12.25;;;4.53;;
23304;SDS011;11821;51.456;8.844;2023-10-13T12:03:11;7.45;;;3.90;;
23304;SDS011;11821;51.456;8.844;2023-10-13T12:05:56;10.38;;;4.65;;
23304;SDS011;11821;51.456;8.844;2023-10-13T12:08:44;12.77;;;3.63;;
23304;SDS011;11821;51.456;8.844;2023-10-13T12:11:18;9.82;;;4.38;;
23304;SDS011;11821;51.456;8.844;2023-10-13T12:13:59;15.25;;;4.63;;
23304;SDS011;11821;51.456;8.844;2023-10-13T12:16:37;11.45;;;4.65;;
23304;SDS011;11821;51.456;8.844;2023-10-13T12:19:03;11.63;;;4.47;;
23304;SDS011;11821;51.456;8.844;2023-10-13T12:21:33;13.52;;;4.68;;
23304;SDS011;11821;51.456;8.844;2023-10-13T12:24:03;9.50;;;4.47;;
23304;SDS011;11821;51.456;8.844;2023-10-13T12:26:36;15.05;;;4.45;;
23304;SDS011;11821;51.456;8.844;2023-10-13T12:29:07;10.88;;;5.03;;
23304;SDS011;11821;51.456;8.844;2023-10-13T12:31:43;9.93;;;4.72;;
23304;SDS011;11821;51.456;8.844;2023-10-13T12:34:16;12.38;;;4.30;;
23304;SDS011;11821;51.456;8.844;2023-10-13T12:36:56;13.90;;;4.32;;
23304;SDS011;11821;51.456;8.844;2023-10-13T12:39:31;13.48;;;4.35;;
23304;SDS011;11821;51.456;8.844;2023-10-13T12:42:16;13.82;;;4.35;;
23304;SDS011;11821;51.456;8.844;2023-10-13T12:45:08;18.92;;;5.32;;
23304;SDS011;11821;51.456;8.844;2023-10-13T12:47:53;15.80;;;4.88;;
23304;SDS011;11821;51.456;8.844;2023-10-13T12:50:38;14.80;;;4.68;;
23304;SDS011;11821;51.456;8.844;2023-10-13T12:53:24;8.70;;;4.45;;
23304;SDS011;11821;51.456;8.844;2023-10-13T12:55:56;10.68;;;3.90;;
23304;SDS011;11821;51.456;8.844;2023-10-13T12:58:22;16.85;;;5.53;;
23304;SDS011;11821;51.456;8.844;2023-10-13T13:00:52;15.57;;;5.13;;
23304;SDS011;11821;51.456;8.844;2023-10-13T13:03:30;12.68;;;4.75;;
23304;SDS011;11821;51.456;8.844;2023-10-13T13:05:58;13.93;;;4.40;;
23304;SDS011;11821;51.456;8.844;2023-10-13T13:08:24;18.98;;;5.57;;
23304;SDS011;11821;51.456;8.844;2023-10-13T13:10:50;14.10;;;4.30;;
23304;SDS011;11821;51.456;8.844;2023-10-13T13:13:18;9.50;;;4.38;;
23304;SDS011;11821;51.456;8.844;2023-10-13T13:18:16;13.50;;;4.97;;
23304;SDS011;11821;51.456;8.844;2023-10-13T13:20:42;7.25;;;4.30;;
23304;SDS011;11821;51.456;8.844;2023-10-13T13:23:19;14.20;;;5.03;;
23304;SDS011;11821;51.456;8.844;2023-10-13T13:25:45;12.60;;;5.07;;
23304;SDS011;11821;51.456;8.844;2023-10-13T13:28:12;15.63;;;4.40;;
23304;SDS011;11821;51.456;8.844;2023-10-13T13:30:40;12.77;;;4.53;;
23304;SDS011;11821;51.456;8.844;2023-10-13T13:33:06;11.77;;;4.15;;
23304;SDS011;11821;51.456;8.844;2023-10-13T13:35:39;10.95;;;4.35;;
23304;SDS011;11821;51.456;8.844;2023-10-13T13:38:08;16.17;;;5.90;;
23304;SDS011;11821;51.456;8.844;2023-10-13T13:40:57;17.00;;;4.72;;
23304;SDS011;11821;51.456;8.844;2023-10-13T13:43:24;9.23;;;4.47;;
23304;SDS011;11821;51.456;8.844;2023-10-13T13:46:26;12.02;;;4.32;;
23304;SDS011;11821;51.456;8.844;2023-10-13T13:48:59;10.20;;;5.25;;
23304;SDS011;11821;51.456;8.844;2023-10-13T13:51:26;10.52;;;5.43;;
23304;SDS011;11821;51.456;8.844;2023-10-13T13:53:54;12.57;;;4.50;;
23304;SDS011;11821;51.456;8.844;2023-10-13T13:56:21;15.00;;;5.15;;
23304;SDS011;11821;51.456;8.844;2023-10-13T13:58:51;12.43;;;4.50;;
23304;SDS011;11821;51.456;8.844;2023-10-13T14:01:21;9.48;;;4.25;;
23304;SDS011;11821;51.456;8.844;2023-10-13T14:03:49;14.65;;;4.50;;
23304;SDS011;11821;51.456;8.844;2023-10-13T14:06:18;18.40;;;4.63;;
23304;SDS011;11821;51.456;8.844;2023-10-13T14:08:57;8.63;;;4.38;;
23304;SDS011;11821;51.456;8.844;2023-10-13T14:11:58;21.60;;;5.43;;
23304;SDS011;11821;51.456;8.844;2023-10-13T14:14:43;15.82;;;5.20;;
23304;SDS011;11821;51.456;8.844;2023-10-13T14:17:15;9.23;;;3.90;;
23304;SDS011;11821;51.456;8.844;2023-10-13T14:19:41;16.85;;;5.28;;
23304;SDS011;11821;51.456;8.844;2023-10-13T14:22:11;11.63;;;4.07;;
23304;SDS011;11821;51.456;8.844;2023-10-13T14:24:38;12.85;;;4.85;;
23304;SDS011;11821;51.456;8.844;2023-10-13T14:27:16;14.50;;;4.32;;
23304;SDS011;11821;51.456;8.844;2023-10-13T14:29:44;65.13;;;8.02;;
23304;SDS011;11821;51.456;8.844;2023-10-13T14:32:12;10.60;;;4.53;;
23304;SDS011;11821;51.456;8.844;2023-10-13T14:34:41;13.73;;;4.10;;
23304;SDS011;11821;51.456;8.844;2023-10-13T14:37:08;13.90;;;4.57;;
23304;SDS011;11821;51.456;8.844;2023-10-13T14:39:38;9.98;;;4.07;;
23304;SDS011;11821;51.456;8.844;2023-10-13T14:42:08;14.63;;;4.40;;
23304;SDS011;11821;51.456;8.844;2023-10-13T14:44:34;14.98;;;4.55;;
23304;SDS011;11821;51.456;8.844;2023-10-13T14:47:02;17.67;;;4.93;;
23304;SDS011;11821;51.456;8.844;2023-10-13T14:49:31;15.90;;;4.28;;
23304;SDS011;11821;51.456;8.844;2023-10-13T14:51:57;14.88;;;4.40;;
23304;SDS011;11821;51.456;8.844;2023-10-13T14:54:25;19.77;;;4.50;;
23304;SDS011;11821;51.456;8.844;2023-10-13T14:57:01;13.77;;;4.22;;
23304;SDS011;11821;51.456;8.844;2023-10-13T14:59:28;20.15;;;4.38;;
23304;SDS011;11821;51.456;8.844;2023-10-13T15:02:04;17.27;;;5.85;;
23304;SDS011;11821;51.456;8.844;2023-10-13T15:04:30;13.20;;;4.95;;
23304;SDS011;11821;51.456;8.844;2023-10-13T15:07:01;13.95;;;4.20;;
23304;SDS011;11821;51.456;8.844;2023-10-13T15:09:28;16.77;;;5.07;;
23304;SDS011;11821;51.456;8.844;2023-10-13T15:11:55;16.50;;;4.57;;
23304;SDS011;11821;51.456;8.844;2023-10-13T15:14:21;13.98;;;5.63;;
23304;SDS011;11821;51.456;8.844;2023-10-13T15:16:48;14.32;;;5.03;;
23304;SDS011;11821;51.456;8.844;2023-10-13T15:19:15;15.30;;;4.40;;
23304;SDS011;11821;51.456;8.844;2023-10-13T15:21:44;12.82;;;4.22;;
23304;SDS011;11821;51.456;8.844;2023-10-13T15:24:16;16.30;;;4.65;;
23304;SDS011;11821;51.456;8.844;2023-10-13T15:26:45;22.13;;;5.30;;
23304;SDS011;11821;51.456;8.844;2023-10-13T15:29:15;10.13;;;4.85;;
23304;SDS011;11821;51.456;8.844;2023-10-13T15:31:45;10.20;;;4.50;;
23304;SDS011;11821;51.456;8.844;2023-10-13T15:34:21;12.90;;;5.20;;
23304;SDS011;11821;51.456;8.844;2023-10-13T15:36:49;14.02;;;4.60;;
23304;SDS011;11821;51.456;8.844;2023-10-13T15:39:18;14.68;;;5.03;;
23304;SDS011;11821;51.456;8.844;2023-10-13T15:41:52;12.47;;;4.60;;
23304;SDS011;11821;51.456;8.844;2023-10-13T15:44:19;21.70;;;4.50;;
23304;SDS011;11821;51.456;8.844;2023-10-13T15:46:54;16.40;;;4.38;;
23304;SDS011;11821;51.456;8.844;2023-10-13T15:49:21;11.85;;;4.68;;
23304;SDS011;11821;51.456;8.844;2023-10-13T15:51:48;25.17;;;5.65;;
23304;SDS011;11821;51.456;8.844;2023-10-13T15:54:18;10.43;;;4.60;;
23304;SDS011;11821;51.456;8.844;2023-10-13T15:56:47;8.90;;;4.55;;
23304;SDS011;11821;51.456;8.844;2023-10-13T15:59:14;10.48;;;4.03;;
23304;SDS011;11821;51.456;8.844;2023-10-13T16:01:40;10.05;;;4.97;;
23304;SDS011;11821;51.456;8.844;2023-10-13T16:04:07;15.77;;;4.30;;
23304;SDS011;11821;51.456;8.844;2023-10-13T16:06:43;13.40;;;5.00;;
23304;SDS011;11821;51.456;8.844;2023-10-13T16:09:13;13.20;;;4.75;;
23304;SDS011;11821;51.456;8.844;2023-10-13T16:11:43;12.98;;;5.03;;
23304;SDS011;11821;51.456;8.844;2023-10-13T16:14:11;8.02;;;3.80;;
23304;SDS011;11821;51.456;8.844;2023-10-13T16:16:41;16.48;;;4.32;;
23304;SDS011;11821;51.456;8.844;2023-10-13T16:19:10;8.77;;;4.47;;